Strona główna
METAR-TAF:

METAR-TAF

Lotnisko :

Port lotniczy Wiedeń-Schwechat

Wiedeń, Austria

Szerokość geograficzna: 48-07N, Długość geograficzna: 016-34E, wysokość: 183 m

Aktualna obserwacja pogody

Raport powstał 11 minut temu, godzina 09:50 UTC
Wiatr 3 kt z kierunków zmiennych
Temperatura 28°C
Wilgotność 42%
Ciśnienie 1019 hPa
Widzialność 10 km lub więcej
Mało chmury na wysokości 5000 ft

METAR: LOWW 180950Z VRB03KT 9999 FEW050 28/14 Q1019 NOSIG

czas: 12:01 (10:01 UTC)

Prognoza

Raport powstał 1 godzina i 46 minut temu, godzina 08:15 UTC
Prognoza ważna od 18 godzina 09 UTC do 19 godzina 15 UTC
Wiatr 5 kt od północ
Widzialność 10 km lub więcej
Brak chmur poniżej 1500 m i brak chmur cumulonimbus
Stopniowe zmiany
od 18 godzina 09 UTC do 18 godzina 11 UTC
Wiatr 7 kt od wschodnio-północny wschód
Stopniowe zmiany
od 18 godzina 15 UTC do 18 godzina 17 UTC
Wiatr 2 kt z kierunków zmiennych

TAF: LOWW 180815Z 1809/1915 35005KT CAVOK TX32/1814Z TN19/1902Z BECMG 1809/1811 06007KT BECMG 1815/1817 VRB02KT

Obserwacja i prognoza pogody dla ponad 4000 lotnisk (raport METAR i TAF).

Dostępne stacje oznaczono żółtymi i czerwonymi punktami na mapie.

Najedź kursorem aby zobaczyć nazwę stacji.

Kliknij aby zobaczyć obserwacje i prognozy pogody.

Aby zmienić mapę: kliknij na zielony przycisk z czarnym krzyżykiem, aby powiększyć; na zielony przycisk z myślnikiem, aby pomniejszyć; na zielone strzałki, aby przejść do map sąsiednich.


METAR-TAF: